createdAt,value
2019-03-21T00:03:52.196Z,52.50
2019-03-21T00:08:56.202Z,52.60
2019-03-21T00:14:06.938Z,52.70
2019-03-21T00:19:07.776Z,52.60
2019-03-21T00:24:11.294Z,52.60
2019-03-21T00:29:14.680Z,52.70
2019-03-21T00:34:21.778Z,52.80
2019-03-21T00:39:32.657Z,52.80
2019-03-21T00:44:31.375Z,52.90
2019-03-21T00:49:34.875Z,53.20
2019-03-21T00:54:39.700Z,52.90
2019-03-21T00:59:43.010Z,52.80
2019-03-21T01:04:46.386Z,52.90
2019-03-21T01:09:50.553Z,53.10
2019-03-21T01:14:53.943Z,53.30
2019-03-21T01:19:57.260Z,53.50
2019-03-21T01:25:00.642Z,53.80
2019-03-21T01:30:08.136Z,54.30
2019-03-21T01:35:11.693Z,55.10
2019-03-21T01:40:21.053Z,54.80
2019-03-21T01:45:25.666Z,55.20
2019-03-21T01:50:39.420Z,55.40
2019-03-21T01:55:42.774Z,55.80
2019-03-21T02:00:52.080Z,56.80
2019-03-21T02:05:57.134Z,56.30
2019-03-21T02:11:00.428Z,56.70
2019-03-21T02:16:03.839Z,56.80
2019-03-21T02:21:07.211Z,57.30
2019-03-21T02:26:10.509Z,57.70
2019-03-21T02:31:13.812Z,58.00
2019-03-21T02:36:17.202Z,58.50
2019-03-21T02:41:20.493Z,58.80
2019-03-21T02:46:23.888Z,59.00
2019-03-21T02:51:27.218Z,59.30
2019-03-21T02:56:30.715Z,59.50
2019-03-21T03:01:34.464Z,59.60
2019-03-21T03:06:37.857Z,59.80
2019-03-21T03:11:43.303Z,60.00
2019-03-21T03:16:46.644Z,60.20
2019-03-21T03:21:50.027Z,60.40
2019-03-21T03:26:54.478Z,60.50
2019-03-21T03:31:59.144Z,60.80
2019-03-21T03:37:02.506Z,61.90
2019-03-21T03:42:07.318Z,61.40
2019-03-21T03:47:10.668Z,62.30
2019-03-21T03:52:15.278Z,61.80
2019-03-21T03:57:19.896Z,62.00
2019-03-21T04:02:24.000Z,62.30
2019-03-21T04:07:27.383Z,62.40
2019-03-21T04:12:30.895Z,62.70
2019-03-21T04:17:34.898Z,62.80
2019-03-21T04:22:38.272Z,63.00
2019-03-21T04:27:42.318Z,63.20
2019-03-21T04:32:45.801Z,63.50
2019-03-21T04:37:49.113Z,63.70
2019-03-21T04:42:52.426Z,64.00
2019-03-21T04:47:58.654Z,64.30
2019-03-21T04:53:01.959Z,64.50
2019-03-21T04:58:05.338Z,64.60
2019-03-21T05:03:10.867Z,65.00
2019-03-21T05:08:14.233Z,65.30
2019-03-21T05:13:18.997Z,65.40
2019-03-21T05:18:45.549Z,65.70
2019-03-21T05:23:48.941Z,66.00
2019-03-21T05:28:52.303Z,66.20
2019-03-21T05:33:56.243Z,66.40
2019-03-21T05:38:59.711Z,66.70
2019-03-21T05:44:21.574Z,66.80
2019-03-21T05:49:24.941Z,67.00
2019-03-21T05:54:29.926Z,67.30
2019-03-21T05:59:33.951Z,67.40
2019-03-21T06:04:38.245Z,67.50
2019-03-21T06:09:42.319Z,67.60
2019-03-21T06:14:54.488Z,67.50
2019-03-21T06:20:31.955Z,67.50
2019-03-21T06:25:47.333Z,67.50
2019-03-21T06:30:50.756Z,67.60
2019-03-21T06:35:54.250Z,67.70
2019-03-21T06:40:57.921Z,67.70
2019-03-21T06:46:01.313Z,67.70
2019-03-21T06:51:04.971Z,67.80
2019-03-21T06:56:08.300Z,67.50
2019-03-21T07:01:13.194Z,67.30
2019-03-21T07:06:16.625Z,67.20
2019-03-21T07:11:20.698Z,67.10
2019-03-21T07:16:27.085Z,66.90
2019-03-21T07:21:30.506Z,66.50
2019-03-21T07:26:34.404Z,66.50
2019-03-21T07:31:37.784Z,66.20
2019-03-21T07:36:41.090Z,66.50
2019-03-21T07:41:44.555Z,66.00
2019-03-21T07:46:48.223Z,65.90
2019-03-21T07:51:51.615Z,64.90
2019-03-21T07:56:55.145Z,64.70
2019-03-21T08:01:58.516Z,63.20
2019-03-21T08:07:03.103Z,63.20
2019-03-21T08:12:06.470Z,62.90
2019-03-21T08:17:17.592Z,61.70
2019-03-21T08:22:21.088Z,60.20
2019-03-21T08:27:24.499Z,60.60
2019-03-21T08:32:28.263Z,60.10
2019-03-21T08:37:31.767Z,59.50
2019-03-21T08:42:35.887Z,58.50
2019-03-21T08:47:39.745Z,58.90
2019-03-21T08:52:43.054Z,58.90
2019-03-21T08:57:46.414Z,57.50
2019-03-21T09:02:49.728Z,56.00
2019-03-21T09:07:53.987Z,56.00
2019-03-21T09:12:57.519Z,55.90
2019-03-21T09:18:00.962Z,56.10
2019-03-21T09:23:05.461Z,55.70
2019-03-21T09:28:10.001Z,54.90
2019-03-21T09:33:13.314Z,54.20
2019-03-21T09:38:16.668Z,54.00
2019-03-21T09:43:20.067Z,51.30
2019-03-21T09:48:23.511Z,47.80
2019-03-21T09:53:28.022Z,47.70
2019-03-21T09:58:31.371Z,49.10
2019-03-21T10:03:34.828Z,51.50
2019-03-21T10:08:38.992Z,53.30
2019-03-21T10:13:42.392Z,51.50
2019-03-21T10:18:45.775Z,44.10
2019-03-21T10:23:49.104Z,46.80
2019-03-21T10:28:52.614Z,50.90
2019-03-21T10:33:56.011Z,53.00
2019-03-21T10:38:59.444Z,54.50
2019-03-21T10:44:03.132Z,54.10
2019-03-21T10:49:06.419Z,53.80
2019-03-21T10:54:12.246Z,45.80
2019-03-21T10:59:17.667Z,32.70
2019-03-21T11:04:20.648Z,27.70
2019-03-21T11:09:24.026Z,31.60
2019-03-21T11:14:28.268Z,38.80
2019-03-21T11:19:31.614Z,42.50
2019-03-21T11:24:36.014Z,43.80
2019-03-21T11:29:39.411Z,38.00
2019-03-21T11:34:42.946Z,26.30
2019-03-21T11:39:46.325Z,24.40
2019-03-21T11:44:49.888Z,26.30
2019-03-21T11:49:53.285Z,30.50
2019-03-21T11:54:57.022Z,34.40
2019-03-21T12:00:00.539Z,35.50
2019-03-21T12:05:07.945Z,37.20
2019-03-21T12:10:12.229Z,37.80
2019-03-21T12:15:16.095Z,39.80
2019-03-21T12:20:29.896Z,41.50
2019-03-21T12:25:34.351Z,41.00
2019-03-21T12:30:38.990Z,28.20
2019-03-21T12:35:42.385Z,26.10
2019-03-21T12:40:45.771Z,26.30
2019-03-21T12:45:49.636Z,30.60
2019-03-21T12:50:52.957Z,36.50
2019-03-21T12:55:56.537Z,37.50
2019-03-21T13:01:01.278Z,27.90
2019-03-21T13:06:04.731Z,20.90
2019-03-21T13:11:08.404Z,18.20
2019-03-21T13:16:13.464Z,18.80
2019-03-21T13:21:16.923Z,20.20
2019-03-21T13:26:20.205Z,24.00
2019-03-21T13:31:24.340Z,28.90
2019-03-21T13:36:27.748Z,32.70
2019-03-21T13:41:31.188Z,36.80
2019-03-21T13:46:34.722Z,39.40
2019-03-21T13:51:38.453Z,39.40
2019-03-21T13:56:42.785Z,40.70
2019-03-21T14:01:47.727Z,42.40
2019-03-21T14:06:51.109Z,42.70
2019-03-21T14:11:54.676Z,42.40
2019-03-21T14:16:59.598Z,42.70
2019-03-21T14:22:04.049Z,43.10
2019-03-21T14:27:07.359Z,43.60
2019-03-21T14:32:10.753Z,42.90
2019-03-21T14:37:15.989Z,42.30
2019-03-21T14:42:19.352Z,43.00
2019-03-21T14:47:22.708Z,44.10
2019-03-21T14:52:26.011Z,44.80
2019-03-21T14:57:30.922Z,45.60
2019-03-21T15:02:34.438Z,45.60
2019-03-21T15:07:39.592Z,45.50
2019-03-21T15:12:42.945Z,45.60
2019-03-21T15:17:49.226Z,46.10
2019-03-21T15:22:57.023Z,46.90
2019-03-21T15:28:00.031Z,47.30
2019-03-21T15:33:03.697Z,47.50
2019-03-21T15:38:07.781Z,47.90
2019-03-21T15:43:11.241Z,47.90
2019-03-21T15:48:14.646Z,47.80
2019-03-21T15:53:18.004Z,47.90
2019-03-21T15:58:27.864Z,48.60
2019-03-21T16:03:32.396Z,49.80
2019-03-21T16:08:39.785Z,51.10
2019-03-21T16:13:44.796Z,51.90
2019-03-21T16:18:48.112Z,52.80
2019-03-21T16:23:51.589Z,53.90
2019-03-21T16:28:57.673Z,54.50
2019-03-21T16:34:02.300Z,55.40
2019-03-21T16:39:07.187Z,56.20
2019-03-21T16:44:10.504Z,56.80
2019-03-21T16:49:13.800Z,57.50
2019-03-21T16:54:17.783Z,58.20
2019-03-21T16:59:32.176Z,58.80
2019-03-21T17:04:37.275Z,59.40
2019-03-21T17:09:42.599Z,60.70
2019-03-21T17:14:46.460Z,60.50
2019-03-21T17:19:50.593Z,60.50
2019-03-21T17:24:54.295Z,60.80
2019-03-21T17:29:57.708Z,61.20
2019-03-21T17:35:02.900Z,61.30
2019-03-21T17:40:08.170Z,61.50
2019-03-21T17:45:16.378Z,61.70
2019-03-21T17:50:20.273Z,61.70
2019-03-21T17:55:24.584Z,61.90
2019-03-21T18:00:38.457Z,62.10
2019-03-21T18:05:41.871Z,62.20
2019-03-21T18:10:46.050Z,62.20
2019-03-21T18:15:50.873Z,62.30
2019-03-21T18:20:56.327Z,62.60
2019-03-21T18:26:00.257Z,62.80
2019-03-21T18:31:04.256Z,63.10
2019-03-21T18:36:09.327Z,63.20
2019-03-21T18:41:15.431Z,63.60
2019-03-21T18:46:18.898Z,63.60
2019-03-21T18:51:22.336Z,63.90
2019-03-21T18:56:27.586Z,64.80
2019-03-21T19:01:57.888Z,64.30
2019-03-21T19:06:53.550Z,64.70
2019-03-21T19:11:58.499Z,64.90
2019-03-21T19:17:05.785Z,65.40
2019-03-21T19:22:20.946Z,66.10
2019-03-21T19:27:26.154Z,66.70
2019-03-21T19:32:31.485Z,67.50
2019-03-21T19:37:35.996Z,68.20
2019-03-21T19:42:41.475Z,69.00
2019-03-21T19:47:45.705Z,69.80
2019-03-21T19:52:51.290Z,70.50
2019-03-21T19:57:56.693Z,71.10
2019-03-21T20:03:00.152Z,71.70
2019-03-21T20:13:40.798Z,73.10
2019-03-21T20:29:59.535Z,74.40
2019-03-21T20:35:07.956Z,74.80
2019-03-21T20:40:20.575Z,75.30
2019-03-21T20:45:31.442Z,75.40
2019-03-21T20:50:40.789Z,75.20
2019-03-21T20:55:53.603Z,75.00
2019-03-21T21:00:54.042Z,75.00
2019-03-21T21:05:59.277Z,75.00
2019-03-21T21:11:03.161Z,75.10
2019-03-21T21:16:09.044Z,75.20
2019-03-21T21:21:12.698Z,75.60
2019-03-21T21:26:16.164Z,75.60
2019-03-21T21:31:20.448Z,75.70
2019-03-21T21:36:24.848Z,75.80
2019-03-21T21:41:30.729Z,75.70
2019-03-21T21:46:35.498Z,75.80
2019-03-21T21:51:40.874Z,76.20
2019-03-21T21:56:47.772Z,76.50
2019-03-21T22:01:56.403Z,76.60
2019-03-21T22:07:01.485Z,76.80
2019-03-21T22:12:04.966Z,77.00
2019-03-21T22:17:09.111Z,77.20
2019-03-21T22:22:12.485Z,77.40
2019-03-21T22:27:20.155Z,77.50
2019-03-21T22:32:25.047Z,77.80
2019-03-21T22:37:31.648Z,77.90
2019-03-21T22:42:39.311Z,78.10
2019-03-21T22:47:42.751Z,78.30
2019-03-21T22:52:46.869Z,78.40
2019-03-21T22:57:50.324Z,78.70
2019-03-21T23:02:54.962Z,79.00
2019-03-21T23:07:59.255Z,79.10
2019-03-21T23:13:03.021Z,79.20
2019-03-21T23:18:10.254Z,79.40
2019-03-21T23:23:12.871Z,79.70
2019-03-21T23:28:19.598Z,79.90
2019-03-21T23:33:22.439Z,80.10
2019-03-21T23:38:25.986Z,80.30
2019-03-21T23:43:29.434Z,80.40
2019-03-21T23:48:33.616Z,80.70
2019-03-21T23:53:38.952Z,80.70
2019-03-21T23:58:42.802Z,80.90
